Туризм
Свали.ру
Погода в мире
ИА "Метеоновости"
Информеры
для сайтов
Туры
поиск и заказ
Авиабилеты
регулярные и чартерные рейсы
 
    На главную   Табло рисков задержки   Авиабилеты   Расписание авиарейсов

Nouadhibou International Airport    ICAO или ID: GQPP, IATA: NDB
Небольшой аэропорт, регулярные рейсы
добавить в избранное


широта:
долгота:
высота над уровнем моря:
20°56'
-17°2'

7 м
Страна: Мавритания (Mauritania)
погода
туры
отели
аэропорты
Риск задержки рейсов из-за погоды
Факт:  
Прогноз:  
 Карта
 




Прогноз погоды на 24 ч. с 00:00 21-05-2018 по 00:00 30-11-1999 UTC
Прогнозируемый риск задержки рейсов из-за погодных условий
 
GQPP на 24ч. с 21/00ч. до 21/24ч., нет существенной облачности, ветер С(350) 7 м/c, гор. видимость: 8000, ночь, день

Исходная телеграмма в коде TAF
GQPP 202300Z 2100/2124 35014KT 8000 NSC AMD

Раскодировка телеграмм производится в автоматическом режиме, в телеграммах могут содержаться ошибки, приводящие к их неправильной интерпретации.

Предупреждение: данные на этом сайте не могут быть использованы для планирования полётов и предоставляются только в информационных целях.
Найти аэропорт
По названию или городу
только регулярные рейсы

Избранные аэропорты
Список пуст



© 2008 Данио-Пресс. Все права защищены.
Использование материалов сайта возможно только с согласия администрации сервера.
По вопросам рекламы и размещения информации обращаться сюда.


 Рейтинг@Mail.ru  Rambler's Top100